Pontiac, South Carolina
Current Conditions -  °F | °C
As of 12:55 PM on Saturday 20 Dec 2014 (Local Time) from KCDN Reporting Station
Haze Haze  
Wind Chill:   Ceiling: 2400
Heat Index:   Visibility: 5mi
Dew Point:   Wind: 6mph
Humidity: 87%   Direction: 70°ENE
Pressure: 30.23"   Gusts: NA
Location:  34.1767°N, 80.8184°W
Report Text: KCDN 201755Z AUTO 07005KT 5SM BR SCT009 OVC024 07/05 A3023 RMK AO2 TSNO
Loading
Personal Weather Stations






























Interactive Weather Map New forecast layout! Learn more

10-Day Weather Forecast

Advertisements
Track Severe Weather on mobile